sensor_id;sensor_type;location;lat;lon;timestamp;temperature;humidity
48768;DHT22;34933;40.968;14.538;2023-07-13T00:02:35;23.80;97.80
48768;DHT22;34933;40.968;14.538;2023-07-13T00:05:23;23.80;97.60
48768;DHT22;34933;40.968;14.538;2023-07-13T00:08:08;23.80;97.80
48768;DHT22;34933;40.968;14.538;2023-07-13T00:10:53;23.90;98.10
48768;DHT22;34933;40.968;14.538;2023-07-13T00:13:41;23.80;98.40
48768;DHT22;34933;40.968;14.538;2023-07-13T00:16:26;23.90;98.70
48768;DHT22;34933;40.968;14.538;2023-07-13T00:19:12;23.80;99.10
48768;DHT22;34933;40.968;14.538;2023-07-13T00:21:57;23.80;99.50
48768;DHT22;34933;40.968;14.538;2023-07-13T00:24:41;23.70;99.70
48768;DHT22;34933;40.968;14.538;2023-07-13T00:27:26;23.70;99.90
48768;DHT22;34933;40.968;14.538;2023-07-13T00:30:11;23.70;99.90
48768;DHT22;34933;40.968;14.538;2023-07-13T00:32:56;23.70;99.90
48768;DHT22;34933;40.968;14.538;2023-07-13T00:35:40;23.60;99.90
48768;DHT22;34933;40.968;14.538;2023-07-13T00:38:29;23.50;99.90
48768;DHT22;34933;40.968;14.538;2023-07-13T00:41:14;23.50;99.90
48768;DHT22;34933;40.968;14.538;2023-07-13T00:43:59;23.40;99.90
48768;DHT22;34933;40.968;14.538;2023-07-13T00:46:43;23.30;99.90
48768;DHT22;34933;40.968;14.538;2023-07-13T00:49:30;23.20;99.90
48768;DHT22;34933;40.968;14.538;2023-07-13T00:52:16;23.20;99.90
48768;DHT22;34933;40.968;14.538;2023-07-13T00:55:02;23.10;99.90
48768;DHT22;34933;40.968;14.538;2023-07-13T00:57:47;23.10;99.90
48768;DHT22;34933;40.968;14.538;2023-07-13T01:00:33;23.00;99.90
48768;DHT22;34933;40.968;14.538;2023-07-13T01:03:19;23.00;99.90
48768;DHT22;34933;40.968;14.538;2023-07-13T01:06:03;23.00;99.90
48768;DHT22;34933;40.968;14.538;2023-07-13T01:08:48;23.00;99.90
48768;DHT22;34933;40.968;14.538;2023-07-13T01:11:33;23.00;99.90
48768;DHT22;34933;40.968;14.538;2023-07-13T01:14:17;23.00;99.90
48768;DHT22;34933;40.968;14.538;2023-07-13T01:17:03;23.00;99.90
48768;DHT22;34933;40.968;14.538;2023-07-13T01:19:49;22.90;99.90
48768;DHT22;34933;40.968;14.538;2023-07-13T01:22:34;22.90;99.90
48768;DHT22;34933;40.968;14.538;2023-07-13T01:25:20;22.90;99.90
48768;DHT22;34933;40.968;14.538;2023-07-13T01:28:06;22.90;99.90
48768;DHT22;34933;40.968;14.538;2023-07-13T01:30:54;22.90;99.90
48768;DHT22;34933;40.968;14.538;2023-07-13T01:33:40;22.80;99.90
48768;DHT22;34933;40.968;14.538;2023-07-13T01:36:25;22.80;99.90
48768;DHT22;34933;40.968;14.538;2023-07-13T01:39:10;22.80;99.90
48768;DHT22;34933;40.968;14.538;2023-07-13T01:41:56;22.70;99.90
48768;DHT22;34933;40.968;14.538;2023-07-13T01:44:40;22.70;99.90
48768;DHT22;34933;40.968;14.538;2023-07-13T01:47:26;22.60;99.90
48768;DHT22;34933;40.968;14.538;2023-07-13T01:50:12;22.60;99.90
48768;DHT22;34933;40.968;14.538;2023-07-13T01:52:56;22.60;99.90
48768;DHT22;34933;40.968;14.538;2023-07-13T01:55:41;22.60;99.90
48768;DHT22;34933;40.968;14.538;2023-07-13T01:58:26;22.60;99.90
48768;DHT22;34933;40.968;14.538;2023-07-13T02:01:11;22.60;99.90
48768;DHT22;34933;40.968;14.538;2023-07-13T02:03:55;22.60;99.90
48768;DHT22;34933;40.968;14.538;2023-07-13T02:06:40;22.60;99.90
48768;DHT22;34933;40.968;14.538;2023-07-13T02:09:25;22.60;99.90
48768;DHT22;34933;40.968;14.538;2023-07-13T02:12:09;22.50;99.90
48768;DHT22;34933;40.968;14.538;2023-07-13T02:14:54;22.40;99.90
48768;DHT22;34933;40.968;14.538;2023-07-13T02:17:39;22.50;99.90
48768;DHT22;34933;40.968;14.538;2023-07-13T02:20:24;22.40;99.90
48768;DHT22;34933;40.968;14.538;2023-07-13T02:23:08;22.40;99.90
48768;DHT22;34933;40.968;14.538;2023-07-13T02:25:57;22.40;99.90
48768;DHT22;34933;40.968;14.538;2023-07-13T02:28:42;22.30;99.90
48768;DHT22;34933;40.968;14.538;2023-07-13T02:31:26;22.30;99.90
48768;DHT22;34933;40.968;14.538;2023-07-13T02:34:12;22.20;99.90
48768;DHT22;34933;40.968;14.538;2023-07-13T02:36:57;22.20;99.90
48768;DHT22;34933;40.968;14.538;2023-07-13T02:39:42;22.30;99.90
48768;DHT22;34933;40.968;14.538;2023-07-13T02:42:27;22.20;99.90
48768;DHT22;34933;40.968;14.538;2023-07-13T02:45:11;22.20;99.90
48768;DHT22;34933;40.968;14.538;2023-07-13T02:47:59;22.20;99.90
48768;DHT22;34933;40.968;14.538;2023-07-13T02:50:44;22.20;99.90
48768;DHT22;34933;40.968;14.538;2023-07-13T02:53:28;22.20;99.90
48768;DHT22;34933;40.968;14.538;2023-07-13T02:56:13;22.20;99.90
48768;DHT22;34933;40.968;14.538;2023-07-13T02:58:58;22.10;99.90
48768;DHT22;34933;40.968;14.538;2023-07-13T03:01:42;22.10;99.90
48768;DHT22;34933;40.968;14.538;2023-07-13T03:04:27;22.00;99.90
48768;DHT22;34933;40.968;14.538;2023-07-13T03:07:12;22.10;99.90
48768;DHT22;34933;40.968;14.538;2023-07-13T03:09:59;22.20;99.90
48768;DHT22;34933;40.968;14.538;2023-07-13T03:12:53;22.20;99.90
48768;DHT22;34933;40.968;14.538;2023-07-13T03:15:42;22.20;99.90
48768;DHT22;34933;40.968;14.538;2023-07-13T03:18:30;22.20;99.90
48768;DHT22;34933;40.968;14.538;2023-07-13T03:21:18;22.40;99.90
48768;DHT22;34933;40.968;14.538;2023-07-13T03:24:03;22.40;99.90
48768;DHT22;34933;40.968;14.538;2023-07-13T03:26:47;22.40;99.90
48768;DHT22;34933;40.968;14.538;2023-07-13T03:29:32;22.40;99.90
48768;DHT22;34933;40.968;14.538;2023-07-13T03:32:16;22.40;99.90
48768;DHT22;34933;40.968;14.538;2023-07-13T03:35:02;22.40;99.90
48768;DHT22;34933;40.968;14.538;2023-07-13T03:37:49;22.50;99.90
48768;DHT22;34933;40.968;14.538;2023-07-13T03:40:37;22.40;99.90
48768;DHT22;34933;40.968;14.538;2023-07-13T03:43:22;22.40;99.90
48768;DHT22;34933;40.968;14.538;2023-07-13T03:46:06;22.40;99.90
48768;DHT22;34933;40.968;14.538;2023-07-13T03:48:51;22.30;99.90
48768;DHT22;34933;40.968;14.538;2023-07-13T03:51:36;22.20;99.90
48768;DHT22;34933;40.968;14.538;2023-07-13T03:54:21;22.20;99.90
48768;DHT22;34933;40.968;14.538;2023-07-13T03:57:06;22.20;99.90
48768;DHT22;34933;40.968;14.538;2023-07-13T03:59:52;22.30;99.90
48768;DHT22;34933;40.968;14.538;2023-07-13T04:02:37;22.30;99.90
48768;DHT22;34933;40.968;14.538;2023-07-13T04:05:22;22.40;99.90
48768;DHT22;34933;40.968;14.538;2023-07-13T04:08:07;22.40;99.90
48768;DHT22;34933;40.968;14.538;2023-07-13T04:10:52;22.50;99.90
48768;DHT22;34933;40.968;14.538;2023-07-13T04:13:36;22.50;99.90
48768;DHT22;34933;40.968;14.538;2023-07-13T04:16:21;22.60;99.90
48768;DHT22;34933;40.968;14.538;2023-07-13T04:19:06;22.60;99.90
48768;DHT22;34933;40.968;14.538;2023-07-13T04:21:50;22.70;99.90
48768;DHT22;34933;40.968;14.538;2023-07-13T04:24:35;22.70;99.90
48768;DHT22;34933;40.968;14.538;2023-07-13T04:27:20;22.70;99.90
48768;DHT22;34933;40.968;14.538;2023-07-13T04:30:05;22.80;99.90
48768;DHT22;34933;40.968;14.538;2023-07-13T04:32:53;22.80;99.90
48768;DHT22;34933;40.968;14.538;2023-07-13T04:35:37;22.90;99.90
48768;DHT22;34933;40.968;14.538;2023-07-13T04:38:24;23.00;99.90
48768;DHT22;34933;40.968;14.538;2023-07-13T04:41:09;23.10;99.90
48768;DHT22;34933;40.968;14.538;2023-07-13T04:43:53;23.10;99.90
48768;DHT22;34933;40.968;14.538;2023-07-13T04:46:38;23.10;99.90
48768;DHT22;34933;40.968;14.538;2023-07-13T04:49:22;23.20;99.90
48768;DHT22;34933;40.968;14.538;2023-07-13T04:52:08;23.30;99.90
48768;DHT22;34933;40.968;14.538;2023-07-13T04:54:52;23.40;99.90
48768;DHT22;34933;40.968;14.538;2023-07-13T04:57:37;23.50;99.90
48768;DHT22;34933;40.968;14.538;2023-07-13T05:00:21;23.50;99.90
48768;DHT22;34933;40.968;14.538;2023-07-13T05:03:06;23.70;99.40
48768;DHT22;34933;40.968;14.538;2023-07-13T05:06:03;23.80;99.00
48768;DHT22;34933;40.968;14.538;2023-07-13T05:08:48;24.00;99.10
48768;DHT22;34933;40.968;14.538;2023-07-13T05:11:32;24.10;98.70
48768;DHT22;34933;40.968;14.538;2023-07-13T05:14:17;24.30;98.00
48768;DHT22;34933;40.968;14.538;2023-07-13T05:17:02;24.50;98.10
48768;DHT22;34933;40.968;14.538;2023-07-13T05:19:46;24.70;97.20
48768;DHT22;34933;40.968;14.538;2023-07-13T05:22:31;24.90;97.60
48768;DHT22;34933;40.968;14.538;2023-07-13T05:25:16;25.00;97.80
48768;DHT22;34933;40.968;14.538;2023-07-13T05:28:01;25.10;98.20
48768;DHT22;34933;40.968;14.538;2023-07-13T05:30:47;25.30;98.40
48768;DHT22;34933;40.968;14.538;2023-07-13T05:33:32;25.40;98.80
48768;DHT22;34933;40.968;14.538;2023-07-13T05:36:16;25.60;98.90
48768;DHT22;34933;40.968;14.538;2023-07-13T05:39:03;25.70;98.90
48768;DHT22;34933;40.968;14.538;2023-07-13T05:41:48;25.90;99.40
48768;DHT22;34933;40.968;14.538;2023-07-13T05:44:32;26.00;99.00
48768;DHT22;34933;40.968;14.538;2023-07-13T05:47:17;26.10;99.00
48768;DHT22;34933;40.968;14.538;2023-07-13T05:50:01;26.30;99.40
48768;DHT22;34933;40.968;14.538;2023-07-13T05:52:47;26.40;99.20
48768;DHT22;34933;40.968;14.538;2023-07-13T05:55:31;26.60;99.40
48768;DHT22;34933;40.968;14.538;2023-07-13T05:58:17;26.70;99.40
48768;DHT22;34933;40.968;14.538;2023-07-13T06:01:04;26.80;98.80
48768;DHT22;34933;40.968;14.538;2023-07-13T06:03:49;27.00;98.60
48768;DHT22;34933;40.968;14.538;2023-07-13T06:06:34;27.10;98.30
48768;DHT22;34933;40.968;14.538;2023-07-13T06:09:18;27.30;98.20
48768;DHT22;34933;40.968;14.538;2023-07-13T06:12:03;27.40;97.80
48768;DHT22;34933;40.968;14.538;2023-07-13T06:14:48;27.50;97.50
48768;DHT22;34933;40.968;14.538;2023-07-13T06:17:32;27.60;97.20
48768;DHT22;34933;40.968;14.538;2023-07-13T06:20:17;27.70;97.10
48768;DHT22;34933;40.968;14.538;2023-07-13T06:23:02;27.80;97.60
48768;DHT22;34933;40.968;14.538;2023-07-13T06:25:46;28.00;97.80
48768;DHT22;34933;40.968;14.538;2023-07-13T06:28:31;28.10;97.80
48768;DHT22;34933;40.968;14.538;2023-07-13T06:31:16;28.20;97.60
48768;DHT22;34933;40.968;14.538;2023-07-13T06:34:01;28.30;96.90
48768;DHT22;34933;40.968;14.538;2023-07-13T06:36:45;28.40;95.90
48768;DHT22;34933;40.968;14.538;2023-07-13T06:39:30;28.60;95.10
48768;DHT22;34933;40.968;14.538;2023-07-13T06:42:16;28.70;94.60
48768;DHT22;34933;40.968;14.538;2023-07-13T06:45:01;28.80;94.50
48768;DHT22;34933;40.968;14.538;2023-07-13T06:47:45;28.90;93.90
48768;DHT22;34933;40.968;14.538;2023-07-13T06:50:30;29.00;93.40
48768;DHT22;34933;40.968;14.538;2023-07-13T06:53:17;29.10;93.20
48768;DHT22;34933;40.968;14.538;2023-07-13T06:56:02;29.20;93.60
48768;DHT22;34933;40.968;14.538;2023-07-13T06:58:46;29.30;93.60
48768;DHT22;34933;40.968;14.538;2023-07-13T07:01:31;29.30;93.30
48768;DHT22;34933;40.968;14.538;2023-07-13T07:04:15;29.40;92.90
48768;DHT22;34933;40.968;14.538;2023-07-13T07:07:00;29.50;93.50
48768;DHT22;34933;40.968;14.538;2023-07-13T07:09:44;29.50;94.10
48768;DHT22;34933;40.968;14.538;2023-07-13T07:12:29;29.60;94.10
48768;DHT22;34933;40.968;14.538;2023-07-13T07:15:14;29.60;94.00
48768;DHT22;34933;40.968;14.538;2023-07-13T07:17:58;29.60;95.40
48768;DHT22;34933;40.968;14.538;2023-07-13T07:20:42;29.70;96.20
48768;DHT22;34933;40.968;14.538;2023-07-13T07:23:27;29.80;96.00
48768;DHT22;34933;40.968;14.538;2023-07-13T07:26:12;30.00;95.60
48768;DHT22;34933;40.968;14.538;2023-07-13T07:28:56;30.00;95.30
48768;DHT22;34933;40.968;14.538;2023-07-13T07:31:41;29.90;94.60
48768;DHT22;34933;40.968;14.538;2023-07-13T07:34:26;30.00;94.70
48768;DHT22;34933;40.968;14.538;2023-07-13T07:37:12;30.00;93.70
48768;DHT22;34933;40.968;14.538;2023-07-13T07:39:56;30.20;93.30
48768;DHT22;34933;40.968;14.538;2023-07-13T07:42:41;30.20;93.10
48768;DHT22;34933;40.968;14.538;2023-07-13T07:45:26;30.30;93.30
48768;DHT22;34933;40.968;14.538;2023-07-13T07:48:11;30.40;92.20
48768;DHT22;34933;40.968;14.538;2023-07-13T07:50:56;30.50;93.00
48768;DHT22;34933;40.968;14.538;2023-07-13T07:53:40;30.60;93.40
48768;DHT22;34933;40.968;14.538;2023-07-13T07:56:25;30.80;92.50
48768;DHT22;34933;40.968;14.538;2023-07-13T07:59:10;30.80;91.80
48768;DHT22;34933;40.968;14.538;2023-07-13T08:01:54;30.90;91.70
48768;DHT22;34933;40.968;14.538;2023-07-13T08:04:39;30.90;91.80
48768;DHT22;34933;40.968;14.538;2023-07-13T08:07:24;31.00;92.10
48768;DHT22;34933;40.968;14.538;2023-07-13T08:10:09;31.10;92.30
48768;DHT22;34933;40.968;14.538;2023-07-13T08:12:53;31.20;92.10
48768;DHT22;34933;40.968;14.538;2023-07-13T08:15:38;31.30;92.30
48768;DHT22;34933;40.968;14.538;2023-07-13T08:18:23;31.30;92.10
48768;DHT22;34933;40.968;14.538;2023-07-13T08:21:08;31.40;92.10
48768;DHT22;34933;40.968;14.538;2023-07-13T08:23:53;31.70;91.50
48768;DHT22;34933;40.968;14.538;2023-07-13T08:26:37;31.80;90.80
48768;DHT22;34933;40.968;14.538;2023-07-13T08:29:23;31.80;90.80
48768;DHT22;34933;40.968;14.538;2023-07-13T08:32:08;31.80;91.40
48768;DHT22;34933;40.968;14.538;2023-07-13T08:34:55;31.90;91.40
48768;DHT22;34933;40.968;14.538;2023-07-13T08:37:40;31.90;91.60
48768;DHT22;34933;40.968;14.538;2023-07-13T08:40:25;32.00;91.20
48768;DHT22;34933;40.968;14.538;2023-07-13T08:43:28;32.10;91.20
48768;DHT22;34933;40.968;14.538;2023-07-13T08:46:20;32.20;90.60
48768;DHT22;34933;40.968;14.538;2023-07-13T08:49:15;32.30;90.90
48768;DHT22;34933;40.968;14.538;2023-07-13T08:52:40;32.30;90.90
48768;DHT22;34933;40.968;14.538;2023-07-13T08:55:24;32.20;90.60
48768;DHT22;34933;40.968;14.538;2023-07-13T08:58:16;32.30;90.10
48768;DHT22;34933;40.968;14.538;2023-07-13T09:01:23;32.40;90.10
48768;DHT22;34933;40.968;14.538;2023-07-13T09:04:33;32.60;90.30
48768;DHT22;34933;40.968;14.538;2023-07-13T09:10:25;32.90;90.50
48768;DHT22;34933;40.968;14.538;2023-07-13T09:13:37;33.10;90.60
48768;DHT22;34933;40.968;14.538;2023-07-13T09:16:25;33.10;90.50
48768;DHT22;34933;40.968;14.538;2023-07-13T09:19:16;33.00;90.20
48768;DHT22;34933;40.968;14.538;2023-07-13T09:22:05;33.10;87.00
48768;DHT22;34933;40.968;14.538;2023-07-13T09:25:03;33.30;88.60
48768;DHT22;34933;40.968;14.538;2023-07-13T09:27:51;33.60;88.70
48768;DHT22;34933;40.968;14.538;2023-07-13T09:33:45;33.70;87.30
48768;DHT22;34933;40.968;14.538;2023-07-13T09:36:31;33.80;87.40
48768;DHT22;34933;40.968;14.538;2023-07-13T09:39:37;33.80;88.00
48768;DHT22;34933;40.968;14.538;2023-07-13T09:42:23;34.00;87.50
48768;DHT22;34933;40.968;14.538;2023-07-13T09:45:10;34.00;87.20
48768;DHT22;34933;40.968;14.538;2023-07-13T09:48:11;34.20;88.10
48768;DHT22;34933;40.968;14.538;2023-07-13T09:51:09;34.40;87.80
48768;DHT22;34933;40.968;14.538;2023-07-13T09:53:57;34.70;87.00
48768;DHT22;34933;40.968;14.538;2023-07-13T09:56:41;34.80;87.60
48768;DHT22;34933;40.968;14.538;2023-07-13T09:59:35;34.70;87.40
48768;DHT22;34933;40.968;14.538;2023-07-13T10:02:31;34.60;86.00
48768;DHT22;34933;40.968;14.538;2023-07-13T10:05:18;34.80;84.50
48768;DHT22;34933;40.968;14.538;2023-07-13T10:08:16;34.90;84.50
48768;DHT22;34933;40.968;14.538;2023-07-13T10:14:20;34.70;82.00
48768;DHT22;34933;40.968;14.538;2023-07-13T10:17:12;34.70;83.00
48768;DHT22;34933;40.968;14.538;2023-07-13T10:20:00;34.70;81.20
48768;DHT22;34933;40.968;14.538;2023-07-13T10:23:05;35.00;78.30
48768;DHT22;34933;40.968;14.538;2023-07-13T10:25:54;35.40;79.00
48768;DHT22;34933;40.968;14.538;2023-07-13T10:28:42;35.70;79.10
48768;DHT22;34933;40.968;14.538;2023-07-13T10:31:30;35.90;78.60
48768;DHT22;34933;40.968;14.538;2023-07-13T10:34:15;35.90;77.40
48768;DHT22;34933;40.968;14.538;2023-07-13T10:37:00;35.90;78.30
48768;DHT22;34933;40.968;14.538;2023-07-13T10:39:46;36.10;79.70
48768;DHT22;34933;40.968;14.538;2023-07-13T10:42:36;36.00;80.80
48768;DHT22;34933;40.968;14.538;2023-07-13T10:45:23;36.10;78.30
48768;DHT22;34933;40.968;14.538;2023-07-13T10:48:12;36.30;77.00
48768;DHT22;34933;40.968;14.538;2023-07-13T10:50:58;36.60;77.00
48768;DHT22;34933;40.968;14.538;2023-07-13T10:53:45;36.60;73.10
48768;DHT22;34933;40.968;14.538;2023-07-13T10:56:30;36.60;74.00
48768;DHT22;34933;40.968;14.538;2023-07-13T11:02:13;36.50;75.00
48768;DHT22;34933;40.968;14.538;2023-07-13T11:08:16;36.70;77.00
48768;DHT22;34933;40.968;14.538;2023-07-13T11:17:25;37.20;75.50
48768;DHT22;34933;40.968;14.538;2023-07-13T11:23:09;37.70;76.60
48768;DHT22;34933;40.968;14.538;2023-07-13T11:25:54;37.50;77.20
48768;DHT22;34933;40.968;14.538;2023-07-13T11:28:39;37.30;78.00
48768;DHT22;34933;40.968;14.538;2023-07-13T11:31:23;37.40;78.10
48768;DHT22;34933;40.968;14.538;2023-07-13T11:34:15;37.70;77.10
48768;DHT22;34933;40.968;14.538;2023-07-13T11:37:02;38.10;77.70
48768;DHT22;34933;40.968;14.538;2023-07-13T11:39:48;37.80;78.00
48768;DHT22;34933;40.968;14.538;2023-07-13T11:42:35;37.80;77.70
48768;DHT22;34933;40.968;14.538;2023-07-13T11:45:21;37.80;77.40
48768;DHT22;34933;40.968;14.538;2023-07-13T11:48:28;37.80;77.20
48768;DHT22;34933;40.968;14.538;2023-07-13T11:51:32;38.40;78.10
48768;DHT22;34933;40.968;14.538;2023-07-13T11:54:32;38.90;76.90
48768;DHT22;34933;40.968;14.538;2023-07-13T12:00:14;39.60;76.50
48768;DHT22;34933;40.968;14.538;2023-07-13T12:03:02;40.20;76.70
48768;DHT22;34933;40.968;14.538;2023-07-13T12:06:04;40.80;76.10
48768;DHT22;34933;40.968;14.538;2023-07-13T12:08:52;41.90;76.00
48768;DHT22;34933;40.968;14.538;2023-07-13T12:11:36;41.70;75.20
48768;DHT22;34933;40.968;14.538;2023-07-13T12:14:22;42.00;74.20
48768;DHT22;34933;40.968;14.538;2023-07-13T12:17:18;41.80;75.20
48768;DHT22;34933;40.968;14.538;2023-07-13T12:20:21;41.50;73.90
48768;DHT22;34933;40.968;14.538;2023-07-13T12:23:30;41.50;74.20
48768;DHT22;34933;40.968;14.538;2023-07-13T12:26:17;41.90;74.80
48768;DHT22;34933;40.968;14.538;2023-07-13T12:29:05;42.00;74.10
48768;DHT22;34933;40.968;14.538;2023-07-13T12:31:50;41.90;74.70
48768;DHT22;34933;40.968;14.538;2023-07-13T12:34:51;41.80;74.70
48768;DHT22;34933;40.968;14.538;2023-07-13T12:37:37;42.20;74.50
48768;DHT22;34933;40.968;14.538;2023-07-13T12:40:27;43.00;74.50
48768;DHT22;34933;40.968;14.538;2023-07-13T12:43:15;43.70;72.60
48768;DHT22;34933;40.968;14.538;2023-07-13T12:46:05;43.50;72.30
48768;DHT22;34933;40.968;14.538;2023-07-13T12:49:00;44.10;71.80
48768;DHT22;34933;40.968;14.538;2023-07-13T12:51:45;44.50;70.20
48768;DHT22;34933;40.968;14.538;2023-07-13T12:54:33;43.70;69.90
48768;DHT22;34933;40.968;14.538;2023-07-13T12:57:19;43.00;69.70
48768;DHT22;34933;40.968;14.538;2023-07-13T13:00:22;43.00;70.30
48768;DHT22;34933;40.968;14.538;2023-07-13T13:08:59;42.40;69.10
48768;DHT22;34933;40.968;14.538;2023-07-13T13:11:45;42.40;68.70
48768;DHT22;34933;40.968;14.538;2023-07-13T13:14:29;42.60;68.00
48768;DHT22;34933;40.968;14.538;2023-07-13T13:17:20;42.00;68.10
48768;DHT22;34933;40.968;14.538;2023-07-13T13:20:20;42.00;68.70
48768;DHT22;34933;40.968;14.538;2023-07-13T13:23:17;42.60;68.00
48768;DHT22;34933;40.968;14.538;2023-07-13T13:26:04;42.60;68.00
48768;DHT22;34933;40.968;14.538;2023-07-13T13:28:50;42.80;67.00
48768;DHT22;34933;40.968;14.538;2023-07-13T13:31:34;43.10;66.70
48768;DHT22;34933;40.968;14.538;2023-07-13T13:34:20;42.90;68.30
48768;DHT22;34933;40.968;14.538;2023-07-13T13:37:22;42.90;67.00
48768;DHT22;34933;40.968;14.538;2023-07-13T13:40:19;42.00;68.50
48768;DHT22;34933;40.968;14.538;2023-07-13T13:43:16;41.10;68.20
48768;DHT22;34933;40.968;14.538;2023-07-13T13:46:01;40.40;69.30
48768;DHT22;34933;40.968;14.538;2023-07-13T13:48:47;39.10;70.00
48768;DHT22;34933;40.968;14.538;2023-07-13T13:51:31;39.20;70.90
48768;DHT22;34933;40.968;14.538;2023-07-13T13:54:18;40.00;70.00
48768;DHT22;34933;40.968;14.538;2023-07-13T13:57:03;40.10;70.20
48768;DHT22;34933;40.968;14.538;2023-07-13T13:59:48;39.40;69.90
48768;DHT22;34933;40.968;14.538;2023-07-13T14:02:33;39.10;70.30
48768;DHT22;34933;40.968;14.538;2023-07-13T14:05:22;39.30;70.70
48768;DHT22;34933;40.968;14.538;2023-07-13T14:08:25;39.70;70.20
48768;DHT22;34933;40.968;14.538;2023-07-13T14:11:15;40.50;69.70
48768;DHT22;34933;40.968;14.538;2023-07-13T14:14:00;41.40;69.00
48768;DHT22;34933;40.968;14.538;2023-07-13T14:16:47;42.10;68.20
48768;DHT22;34933;40.968;14.538;2023-07-13T14:19:37;41.80;68.20
48768;DHT22;34933;40.968;14.538;2023-07-13T14:22:23;42.00;68.00
48768;DHT22;34933;40.968;14.538;2023-07-13T14:25:10;42.00;68.30
48768;DHT22;34933;40.968;14.538;2023-07-13T14:27:58;41.80;68.50
48768;DHT22;34933;40.968;14.538;2023-07-13T14:30:53;41.40;68.80
48768;DHT22;34933;40.968;14.538;2023-07-13T14:33:41;41.90;69.10
48768;DHT22;34933;40.968;14.538;2023-07-13T14:36:32;42.90;68.60
48768;DHT22;34933;40.968;14.538;2023-07-13T14:39:18;43.60;68.30
48768;DHT22;34933;40.968;14.538;2023-07-13T14:42:03;43.60;68.00
48768;DHT22;34933;40.968;14.538;2023-07-13T14:44:48;43.00;68.40
48768;DHT22;34933;40.968;14.538;2023-07-13T14:47:32;42.90;68.00
48768;DHT22;34933;40.968;14.538;2023-07-13T14:50:18;43.10;68.00
48768;DHT22;34933;40.968;14.538;2023-07-13T14:53:03;42.50;68.40
48768;DHT22;34933;40.968;14.538;2023-07-13T14:55:48;42.10;69.20
48768;DHT22;34933;40.968;14.538;2023-07-13T14:58:32;41.90;69.50
48768;DHT22;34933;40.968;14.538;2023-07-13T15:01:17;42.20;69.10
48768;DHT22;34933;40.968;14.538;2023-07-13T15:04:02;42.20;69.40
48768;DHT22;34933;40.968;14.538;2023-07-13T15:06:55;42.20;69.50
48768;DHT22;34933;40.968;14.538;2023-07-13T15:09:40;42.40;69.60
48768;DHT22;34933;40.968;14.538;2023-07-13T15:12:25;42.30;69.60
48768;DHT22;34933;40.968;14.538;2023-07-13T15:15:10;42.10;69.90
48768;DHT22;34933;40.968;14.538;2023-07-13T15:17:54;41.90;69.60
48768;DHT22;34933;40.968;14.538;2023-07-13T15:20:40;41.30;69.60
48768;DHT22;34933;40.968;14.538;2023-07-13T15:23:25;41.00;70.10
48768;DHT22;34933;40.968;14.538;2023-07-13T15:26:14;41.70;70.20
48768;DHT22;34933;40.968;14.538;2023-07-13T15:28:59;41.50;69.90
48768;DHT22;34933;40.968;14.538;2023-07-13T15:31:44;41.70;69.80
48768;DHT22;34933;40.968;14.538;2023-07-13T15:34:28;42.40;68.70
48768;DHT22;34933;40.968;14.538;2023-07-13T15:37:16;42.80;68.60
48768;DHT22;34933;40.968;14.538;2023-07-13T15:40:01;43.20;68.40
48768;DHT22;34933;40.968;14.538;2023-07-13T15:42:46;42.60;68.00
48768;DHT22;34933;40.968;14.538;2023-07-13T15:45:31;42.00;69.30
48768;DHT22;34933;40.968;14.538;2023-07-13T15:48:21;41.80;68.70
48768;DHT22;34933;40.968;14.538;2023-07-13T15:51:12;41.40;69.70
48768;DHT22;34933;40.968;14.538;2023-07-13T15:54:00;41.80;69.90
48768;DHT22;34933;40.968;14.538;2023-07-13T15:56:53;41.80;69.70
48768;DHT22;34933;40.968;14.538;2023-07-13T15:59:39;42.00;69.90
48768;DHT22;34933;40.968;14.538;2023-07-13T16:02:24;42.50;69.50
48768;DHT22;34933;40.968;14.538;2023-07-13T16:05:08;41.30;69.50
48768;DHT22;34933;40.968;14.538;2023-07-13T16:07:53;40.60;70.60
48768;DHT22;34933;40.968;14.538;2023-07-13T16:10:38;41.00;71.30
48768;DHT22;34933;40.968;14.538;2023-07-13T16:13:24;41.70;71.00
48768;DHT22;34933;40.968;14.538;2023-07-13T16:16:11;42.20;71.00
48768;DHT22;34933;40.968;14.538;2023-07-13T16:18:58;41.70;70.90
48768;DHT22;34933;40.968;14.538;2023-07-13T16:21:47;41.10;71.10
48768;DHT22;34933;40.968;14.538;2023-07-13T16:24:35;40.50;71.80
48768;DHT22;34933;40.968;14.538;2023-07-13T16:27:19;40.20;71.90
48768;DHT22;34933;40.968;14.538;2023-07-13T16:30:24;39.40;72.70
48768;DHT22;34933;40.968;14.538;2023-07-13T16:33:11;39.00;74.00
48768;DHT22;34933;40.968;14.538;2023-07-13T16:35:56;39.60;72.90
48768;DHT22;34933;40.968;14.538;2023-07-13T16:38:41;39.60;73.30
48768;DHT22;34933;40.968;14.538;2023-07-13T16:41:25;39.30;73.40
48768;DHT22;34933;40.968;14.538;2023-07-13T16:44:12;39.60;73.00
48768;DHT22;34933;40.968;14.538;2023-07-13T16:46:57;39.30;73.30
48768;DHT22;34933;40.968;14.538;2023-07-13T16:49:45;39.40;74.60
48768;DHT22;34933;40.968;14.538;2023-07-13T16:52:31;39.30;74.10
48768;DHT22;34933;40.968;14.538;2023-07-13T16:55:20;39.20;74.20
48768;DHT22;34933;40.968;14.538;2023-07-13T16:58:11;39.10;74.50
48768;DHT22;34933;40.968;14.538;2023-07-13T17:00:58;39.20;74.30
48768;DHT22;34933;40.968;14.538;2023-07-13T17:03:42;38.60;75.10
48768;DHT22;34933;40.968;14.538;2023-07-13T17:06:28;38.40;75.50
48768;DHT22;34933;40.968;14.538;2023-07-13T17:09:13;38.60;75.40
48768;DHT22;34933;40.968;14.538;2023-07-13T17:11:58;38.30;75.90
48768;DHT22;34933;40.968;14.538;2023-07-13T17:14:43;37.90;76.30
48768;DHT22;34933;40.968;14.538;2023-07-13T17:17:32;37.40;77.00
48768;DHT22;34933;40.968;14.538;2023-07-13T17:20:23;37.10;78.30
48768;DHT22;34933;40.968;14.538;2023-07-13T17:23:28;36.90;78.80
48768;DHT22;34933;40.968;14.538;2023-07-13T17:26:13;36.50;79.80
48768;DHT22;34933;40.968;14.538;2023-07-13T17:28:57;36.50;80.40
48768;DHT22;34933;40.968;14.538;2023-07-13T17:31:43;36.10;80.40
48768;DHT22;34933;40.968;14.538;2023-07-13T17:34:29;35.80;81.10
48768;DHT22;34933;40.968;14.538;2023-07-13T17:37:16;35.00;82.30
48768;DHT22;34933;40.968;14.538;2023-07-13T17:40:03;34.50;83.40
48768;DHT22;34933;40.968;14.538;2023-07-13T17:42:51;34.10;84.30
48768;DHT22;34933;40.968;14.538;2023-07-13T17:45:39;33.80;85.40
48768;DHT22;34933;40.968;14.538;2023-07-13T17:48:25;33.60;86.90
48768;DHT22;34933;40.968;14.538;2023-07-13T17:51:12;33.30;87.40
48768;DHT22;34933;40.968;14.538;2023-07-13T17:53:56;32.90;88.60